sensor_id;sensor_type;location;lat;lon;timestamp;P1;durP1;ratioP1;P2;durP2;ratioP2
13785;SDS011;47474;48.824;9.384;2022-08-21T00:01:07;3.10;;;2.65;;
13785;SDS011;47474;48.824;9.384;2022-08-21T00:03:37;2.70;;;2.50;;
13785;SDS011;47474;48.824;9.384;2022-08-21T00:06:05;4.35;;;2.40;;
13785;SDS011;47474;48.824;9.384;2022-08-21T00:08:32;4.72;;;2.65;;
13785;SDS011;47474;48.824;9.384;2022-08-21T00:10:58;3.67;;;2.53;;
13785;SDS011;47474;48.824;9.384;2022-08-21T00:13:25;2.75;;;2.53;;
13785;SDS011;47474;48.824;9.384;2022-08-21T00:15:51;3.22;;;2.92;;
13785;SDS011;47474;48.824;9.384;2022-08-21T00:18:18;3.00;;;2.70;;
13785;SDS011;47474;48.824;9.384;2022-08-21T00:20:45;3.05;;;2.75;;
13785;SDS011;47474;48.824;9.384;2022-08-21T00:23:14;4.10;;;3.20;;
13785;SDS011;47474;48.824;9.384;2022-08-21T00:25:41;4.93;;;2.70;;
13785;SDS011;47474;48.824;9.384;2022-08-21T00:28:09;3.42;;;2.72;;
13785;SDS011;47474;48.824;9.384;2022-08-21T00:30:36;3.92;;;2.92;;
13785;SDS011;47474;48.824;9.384;2022-08-21T00:33:03;3.00;;;2.70;;
13785;SDS011;47474;48.824;9.384;2022-08-21T00:35:32;4.25;;;2.70;;
13785;SDS011;47474;48.824;9.384;2022-08-21T00:38:00;4.03;;;2.97;;
13785;SDS011;47474;48.824;9.384;2022-08-21T00:40:29;3.17;;;2.97;;
13785;SDS011;47474;48.824;9.384;2022-08-21T00:42:58;2.85;;;2.65;;
13785;SDS011;47474;48.824;9.384;2022-08-21T00:45:25;4.50;;;3.37;;
13785;SDS011;47474;48.824;9.384;2022-08-21T00:47:52;4.03;;;2.60;;
13785;SDS011;47474;48.824;9.384;2022-08-21T00:50:20;3.35;;;3.05;;
13785;SDS011;47474;48.824;9.384;2022-08-21T00:52:46;2.83;;;2.33;;
13785;SDS011;47474;48.824;9.384;2022-08-21T00:55:13;3.20;;;2.90;;
13785;SDS011;47474;48.824;9.384;2022-08-21T00:57:45;4.15;;;2.90;;
13785;SDS011;47474;48.824;9.384;2022-08-21T01:00:16;3.23;;;2.90;;
13785;SDS011;47474;48.824;9.384;2022-08-21T01:02:44;2.90;;;2.63;;
13785;SDS011;47474;48.824;9.384;2022-08-21T01:05:11;2.77;;;2.53;;
13785;SDS011;47474;48.824;9.384;2022-08-21T01:07:38;5.87;;;2.90;;
13785;SDS011;47474;48.824;9.384;2022-08-21T01:10:05;3.60;;;2.70;;
13785;SDS011;47474;48.824;9.384;2022-08-21T01:12:33;4.10;;;3.03;;
13785;SDS011;47474;48.824;9.384;2022-08-21T01:15:02;4.43;;;2.80;;
13785;SDS011;47474;48.824;9.384;2022-08-21T01:17:31;4.47;;;2.43;;
13785;SDS011;47474;48.824;9.384;2022-08-21T01:19:58;5.30;;;3.30;;
13785;SDS011;47474;48.824;9.384;2022-08-21T01:22:26;4.57;;;2.80;;
13785;SDS011;47474;48.824;9.384;2022-08-21T01:24:53;3.20;;;2.70;;
13785;SDS011;47474;48.824;9.384;2022-08-21T01:27:19;3.40;;;3.10;;
13785;SDS011;47474;48.824;9.384;2022-08-21T01:29:48;3.20;;;2.90;;
13785;SDS011;47474;48.824;9.384;2022-08-21T01:32:18;4.40;;;2.70;;
13785;SDS011;47474;48.824;9.384;2022-08-21T01:34:47;2.67;;;2.47;;
13785;SDS011;47474;48.824;9.384;2022-08-21T01:37:14;4.33;;;2.60;;
13785;SDS011;47474;48.824;9.384;2022-08-21T01:39:43;4.67;;;2.60;;
13785;SDS011;47474;48.824;9.384;2022-08-21T01:42:09;3.07;;;2.77;;
13785;SDS011;47474;48.824;9.384;2022-08-21T01:44:36;3.40;;;2.77;;
13785;SDS011;47474;48.824;9.384;2022-08-21T01:47:04;7.43;;;2.90;;
13785;SDS011;47474;48.824;9.384;2022-08-21T01:49:32;2.80;;;2.50;;
13785;SDS011;47474;48.824;9.384;2022-08-21T01:51:59;2.70;;;2.50;;
13785;SDS011;47474;48.824;9.384;2022-08-21T01:54:26;3.00;;;2.47;;
13785;SDS011;47474;48.824;9.384;2022-08-21T01:56:54;3.37;;;3.07;;
13785;SDS011;47474;48.824;9.384;2022-08-21T01:59:20;3.47;;;2.90;;
13785;SDS011;47474;48.824;9.384;2022-08-21T02:01:48;4.63;;;2.83;;
13785;SDS011;47474;48.824;9.384;2022-08-21T02:04:15;3.77;;;2.57;;
13785;SDS011;47474;48.824;9.384;2022-08-21T02:06:42;2.90;;;2.70;;
13785;SDS011;47474;48.824;9.384;2022-08-21T02:09:10;3.37;;;2.50;;
13785;SDS011;47474;48.824;9.384;2022-08-21T02:11:38;2.40;;;2.20;;
13785;SDS011;47474;48.824;9.384;2022-08-21T02:14:07;4.80;;;2.73;;
13785;SDS011;47474;48.824;9.384;2022-08-21T02:16:34;4.03;;;2.70;;
13785;SDS011;47474;48.824;9.384;2022-08-21T02:19:00;3.00;;;2.73;;
13785;SDS011;47474;48.824;9.384;2022-08-21T02:21:27;3.53;;;3.03;;
13785;SDS011;47474;48.824;9.384;2022-08-21T02:23:54;3.03;;;2.73;;
13785;SDS011;47474;48.824;9.384;2022-08-21T02:26:20;4.33;;;3.23;;
13785;SDS011;47474;48.824;9.384;2022-08-21T02:28:47;5.33;;;3.37;;
13785;SDS011;47474;48.824;9.384;2022-08-21T02:31:15;5.37;;;3.10;;
13785;SDS011;47474;48.824;9.384;2022-08-21T02:33:42;3.30;;;3.00;;
13785;SDS011;47474;48.824;9.384;2022-08-21T02:36:09;3.27;;;2.83;;
13785;SDS011;47474;48.824;9.384;2022-08-21T02:38:37;3.13;;;2.83;;
13785;SDS011;47474;48.824;9.384;2022-08-21T02:41:05;3.33;;;3.03;;
13785;SDS011;47474;48.824;9.384;2022-08-21T02:43:33;3.97;;;2.87;;
13785;SDS011;47474;48.824;9.384;2022-08-21T02:46:01;3.00;;;2.70;;
13785;SDS011;47474;48.824;9.384;2022-08-21T02:48:31;2.87;;;2.60;;
13785;SDS011;47474;48.824;9.384;2022-08-21T02:50:59;3.60;;;2.83;;
13785;SDS011;47474;48.824;9.384;2022-08-21T02:53:27;3.17;;;2.50;;
13785;SDS011;47474;48.824;9.384;2022-08-21T02:55:55;3.23;;;2.60;;
13785;SDS011;47474;48.824;9.384;2022-08-21T02:58:23;2.60;;;2.40;;
13785;SDS011;47474;48.824;9.384;2022-08-21T03:00:52;2.70;;;2.50;;
13785;SDS011;47474;48.824;9.384;2022-08-21T03:03:19;2.90;;;2.47;;
13785;SDS011;47474;48.824;9.384;2022-08-21T03:05:47;5.23;;;2.90;;
13785;SDS011;47474;48.824;9.384;2022-08-21T03:08:15;3.07;;;2.57;;
13785;SDS011;47474;48.824;9.384;2022-08-21T03:10:44;3.17;;;2.70;;
13785;SDS011;47474;48.824;9.384;2022-08-21T03:13:13;2.97;;;2.67;;
13785;SDS011;47474;48.824;9.384;2022-08-21T03:15:40;2.93;;;2.70;;
13785;SDS011;47474;48.824;9.384;2022-08-21T03:18:07;3.10;;;2.50;;
13785;SDS011;47474;48.824;9.384;2022-08-21T03:20:35;3.50;;;2.80;;
13785;SDS011;47474;48.824;9.384;2022-08-21T03:23:04;2.63;;;2.43;;
13785;SDS011;47474;48.824;9.384;2022-08-21T03:25:31;2.60;;;2.40;;
13785;SDS011;47474;48.824;9.384;2022-08-21T03:27:58;2.70;;;2.50;;
13785;SDS011;47474;48.824;9.384;2022-08-21T03:30:24;3.17;;;2.70;;
13785;SDS011;47474;48.824;9.384;2022-08-21T03:32:51;3.23;;;2.63;;
13785;SDS011;47474;48.824;9.384;2022-08-21T03:35:18;2.67;;;2.47;;
13785;SDS011;47474;48.824;9.384;2022-08-21T03:37:45;4.10;;;2.70;;
13785;SDS011;47474;48.824;9.384;2022-08-21T03:40:14;2.90;;;2.57;;
13785;SDS011;47474;48.824;9.384;2022-08-21T03:42:42;2.93;;;2.63;;
13785;SDS011;47474;48.824;9.384;2022-08-21T03:45:10;3.33;;;3.03;;
13785;SDS011;47474;48.824;9.384;2022-08-21T03:47:37;2.67;;;2.47;;
13785;SDS011;47474;48.824;9.384;2022-08-21T03:50:03;3.77;;;2.77;;
13785;SDS011;47474;48.824;9.384;2022-08-21T03:52:31;4.83;;;2.83;;
13785;SDS011;47474;48.824;9.384;2022-08-21T03:54:57;4.13;;;2.97;;
13785;SDS011;47474;48.824;9.384;2022-08-21T03:57:25;3.47;;;2.80;;
13785;SDS011;47474;48.824;9.384;2022-08-21T03:59:52;3.20;;;2.70;;
13785;SDS011;47474;48.824;9.384;2022-08-21T04:02:19;3.97;;;2.53;;
13785;SDS011;47474;48.824;9.384;2022-08-21T04:04:47;3.23;;;2.93;;
13785;SDS011;47474;48.824;9.384;2022-08-21T04:07:13;2.97;;;2.50;;
13785;SDS011;47474;48.824;9.384;2022-08-21T04:09:40;3.20;;;2.90;;
13785;SDS011;47474;48.824;9.384;2022-08-21T04:12:07;3.30;;;3.00;;
13785;SDS011;47474;48.824;9.384;2022-08-21T04:14:35;2.60;;;2.40;;
13785;SDS011;47474;48.824;9.384;2022-08-21T04:17:02;3.13;;;2.83;;
13785;SDS011;47474;48.824;9.384;2022-08-21T04:19:29;2.70;;;2.50;;
13785;SDS011;47474;48.824;9.384;2022-08-21T04:21:55;2.50;;;2.30;;
13785;SDS011;47474;48.824;9.384;2022-08-21T04:24:22;2.53;;;2.10;;
13785;SDS011;47474;48.824;9.384;2022-08-21T04:26:48;2.40;;;2.20;;
13785;SDS011;47474;48.824;9.384;2022-08-21T04:29:15;2.87;;;2.60;;
13785;SDS011;47474;48.824;9.384;2022-08-21T04:31:43;2.70;;;2.50;;
13785;SDS011;47474;48.824;9.384;2022-08-21T04:34:09;3.03;;;2.43;;
13785;SDS011;47474;48.824;9.384;2022-08-21T04:36:37;3.93;;;2.40;;
13785;SDS011;47474;48.824;9.384;2022-08-21T04:39:03;2.70;;;2.50;;
13785;SDS011;47474;48.824;9.384;2022-08-21T04:41:44;3.17;;;2.87;;
13785;SDS011;47474;48.824;9.384;2022-08-21T04:44:11;3.43;;;2.80;;
13785;SDS011;47474;48.824;9.384;2022-08-21T04:46:37;3.83;;;3.30;;
13785;SDS011;47474;48.824;9.384;2022-08-21T04:49:07;3.20;;;2.93;;
13785;SDS011;47474;48.824;9.384;2022-08-21T04:51:34;3.10;;;2.90;;
13785;SDS011;47474;48.824;9.384;2022-08-21T04:54:05;3.17;;;2.97;;
13785;SDS011;47474;48.824;9.384;2022-08-21T04:56:35;2.97;;;2.63;;
13785;SDS011;47474;48.824;9.384;2022-08-21T04:59:06;2.67;;;2.47;;
13785;SDS011;47474;48.824;9.384;2022-08-21T05:01:37;2.60;;;2.40;;
13785;SDS011;47474;48.824;9.384;2022-08-21T05:04:10;3.10;;;2.80;;
13785;SDS011;47474;48.824;9.384;2022-08-21T05:06:40;3.03;;;2.73;;
13785;SDS011;47474;48.824;9.384;2022-08-21T05:09:08;3.03;;;2.83;;
13785;SDS011;47474;48.824;9.384;2022-08-21T05:11:35;2.63;;;2.43;;
13785;SDS011;47474;48.824;9.384;2022-08-21T05:14:02;4.27;;;2.87;;
13785;SDS011;47474;48.824;9.384;2022-08-21T05:16:29;2.97;;;2.70;;
13785;SDS011;47474;48.824;9.384;2022-08-21T05:18:56;2.93;;;2.53;;
13785;SDS011;47474;48.824;9.384;2022-08-21T05:21:25;2.40;;;2.20;;
13785;SDS011;47474;48.824;9.384;2022-08-21T05:23:51;2.53;;;2.20;;
13785;SDS011;47474;48.824;9.384;2022-08-21T05:26:20;2.90;;;2.60;;
13785;SDS011;47474;48.824;9.384;2022-08-21T05:28:47;2.53;;;2.33;;
13785;SDS011;47474;48.824;9.384;2022-08-21T05:31:13;3.00;;;2.80;;
13785;SDS011;47474;48.824;9.384;2022-08-21T05:33:40;3.07;;;2.77;;
13785;SDS011;47474;48.824;9.384;2022-08-21T05:36:07;5.37;;;3.20;;
13785;SDS011;47474;48.824;9.384;2022-08-21T05:38:35;3.00;;;2.80;;
13785;SDS011;47474;48.824;9.384;2022-08-21T05:41:02;3.20;;;2.90;;
13785;SDS011;47474;48.824;9.384;2022-08-21T05:43:28;3.10;;;2.80;;
13785;SDS011;47474;48.824;9.384;2022-08-21T05:45:55;3.20;;;2.90;;
13785;SDS011;47474;48.824;9.384;2022-08-21T05:48:23;3.00;;;2.80;;
13785;SDS011;47474;48.824;9.384;2022-08-21T05:50:50;3.30;;;3.00;;
13785;SDS011;47474;48.824;9.384;2022-08-21T05:53:21;3.20;;;2.90;;
13785;SDS011;47474;48.824;9.384;2022-08-21T05:55:50;3.17;;;2.87;;
13785;SDS011;47474;48.824;9.384;2022-08-21T05:58:18;3.10;;;2.83;;
13785;SDS011;47474;48.824;9.384;2022-08-21T06:00:48;3.67;;;3.00;;
13785;SDS011;47474;48.824;9.384;2022-08-21T06:03:17;2.43;;;2.23;;
13785;SDS011;47474;48.824;9.384;2022-08-21T06:05:46;3.10;;;2.80;;
13785;SDS011;47474;48.824;9.384;2022-08-21T06:08:13;3.17;;;2.80;;
13785;SDS011;47474;48.824;9.384;2022-08-21T06:10:41;3.53;;;3.03;;
13785;SDS011;47474;48.824;9.384;2022-08-21T06:13:09;3.37;;;3.07;;
13785;SDS011;47474;48.824;9.384;2022-08-21T06:15:36;2.83;;;2.63;;
13785;SDS011;47474;48.824;9.384;2022-08-21T06:18:03;2.60;;;2.40;;
13785;SDS011;47474;48.824;9.384;2022-08-21T06:20:30;3.27;;;3.00;;
13785;SDS011;47474;48.824;9.384;2022-08-21T06:22:57;3.50;;;3.00;;
13785;SDS011;47474;48.824;9.384;2022-08-21T06:25:24;3.03;;;2.73;;
13785;SDS011;47474;48.824;9.384;2022-08-21T06:27:53;3.50;;;3.00;;
13785;SDS011;47474;48.824;9.384;2022-08-21T06:30:28;3.43;;;3.13;;
13785;SDS011;47474;48.824;9.384;2022-08-21T06:32:58;3.40;;;3.10;;
13785;SDS011;47474;48.824;9.384;2022-08-21T06:35:25;4.33;;;3.10;;
13785;SDS011;47474;48.824;9.384;2022-08-21T06:37:53;3.03;;;2.83;;
13785;SDS011;47474;48.824;9.384;2022-08-21T06:40:22;4.03;;;3.10;;
13785;SDS011;47474;48.824;9.384;2022-08-21T06:42:48;3.53;;;3.22;;
13785;SDS011;47474;48.824;9.384;2022-08-21T06:45:16;4.53;;;3.30;;
13785;SDS011;47474;48.824;9.384;2022-08-21T06:47:44;4.78;;;3.50;;
13785;SDS011;47474;48.824;9.384;2022-08-21T06:50:12;3.42;;;3.03;;
13785;SDS011;47474;48.824;9.384;2022-08-21T06:52:39;3.63;;;3.33;;
13785;SDS011;47474;48.824;9.384;2022-08-21T06:55:07;4.25;;;3.60;;
13785;SDS011;47474;48.824;9.384;2022-08-21T06:57:35;3.50;;;3.20;;
13785;SDS011;47474;48.824;9.384;2022-08-21T07:00:02;3.88;;;3.58;;
13785;SDS011;47474;48.824;9.384;2022-08-21T07:02:30;4.20;;;3.42;;
13785;SDS011;47474;48.824;9.384;2022-08-21T07:04:59;3.60;;;3.30;;
13785;SDS011;47474;48.824;9.384;2022-08-21T07:07:26;3.92;;;3.40;;
13785;SDS011;47474;48.824;9.384;2022-08-21T07:09:55;4.05;;;3.70;;
13785;SDS011;47474;48.824;9.384;2022-08-21T07:12:21;6.43;;;4.13;;
13785;SDS011;47474;48.824;9.384;2022-08-21T07:14:48;6.78;;;4.07;;
13785;SDS011;47474;48.824;9.384;2022-08-21T07:17:14;4.43;;;3.65;;
13785;SDS011;47474;48.824;9.384;2022-08-21T07:19:41;4.25;;;3.85;;
13785;SDS011;47474;48.824;9.384;2022-08-21T07:22:09;4.13;;;3.72;;
13785;SDS011;47474;48.824;9.384;2022-08-21T07:24:36;3.80;;;3.50;;
13785;SDS011;47474;48.824;9.384;2022-08-21T07:27:03;3.75;;;3.45;;
13785;SDS011;47474;48.824;9.384;2022-08-21T07:29:29;5.03;;;4.35;;
13785;SDS011;47474;48.824;9.384;2022-08-21T07:31:56;3.55;;;3.25;;
13785;SDS011;47474;48.824;9.384;2022-08-21T07:34:26;4.05;;;3.60;;
13785;SDS011;47474;48.824;9.384;2022-08-21T07:36:53;4.65;;;3.42;;
13785;SDS011;47474;48.824;9.384;2022-08-21T07:39:21;3.28;;;2.97;;
13785;SDS011;47474;48.824;9.384;2022-08-21T07:41:47;3.83;;;3.20;;
13785;SDS011;47474;48.824;9.384;2022-08-21T07:44:20;3.15;;;2.92;;
13785;SDS011;47474;48.824;9.384;2022-08-21T07:46:47;3.80;;;3.40;;
13785;SDS011;47474;48.824;9.384;2022-08-21T07:49:14;3.92;;;3.10;;
13785;SDS011;47474;48.824;9.384;2022-08-21T07:51:41;4.57;;;3.25;;
13785;SDS011;47474;48.824;9.384;2022-08-21T07:54:07;3.63;;;2.90;;
13785;SDS011;47474;48.824;9.384;2022-08-21T07:56:35;3.42;;;2.70;;
13785;SDS011;47474;48.824;9.384;2022-08-21T07:59:02;3.17;;;2.78;;
13785;SDS011;47474;48.824;9.384;2022-08-21T08:01:29;4.38;;;3.08;;
13785;SDS011;47474;48.824;9.384;2022-08-21T08:03:57;3.58;;;2.83;;
13785;SDS011;47474;48.824;9.384;2022-08-21T08:06:29;5.68;;;3.17;;
13785;SDS011;47474;48.824;9.384;2022-08-21T08:09:01;4.82;;;3.40;;
13785;SDS011;47474;48.824;9.384;2022-08-21T08:11:31;7.07;;;3.63;;
13785;SDS011;47474;48.824;9.384;2022-08-21T08:14:03;6.57;;;3.40;;
13785;SDS011;47474;48.824;9.384;2022-08-21T08:16:32;6.97;;;3.45;;
13785;SDS011;47474;48.824;9.384;2022-08-21T08:18:58;4.60;;;3.22;;
13785;SDS011;47474;48.824;9.384;2022-08-21T08:21:25;4.53;;;3.30;;
13785;SDS011;47474;48.824;9.384;2022-08-21T08:23:55;5.00;;;3.15;;
13785;SDS011;47474;48.824;9.384;2022-08-21T08:26:21;6.15;;;3.40;;
13785;SDS011;47474;48.824;9.384;2022-08-21T08:31:49;4.03;;;2.95;;
13785;SDS011;47474;48.824;9.384;2022-08-21T08:34:19;4.20;;;3.45;;
13785;SDS011;47474;48.824;9.384;2022-08-21T08:36:49;3.83;;;2.92;;
13785;SDS011;47474;48.824;9.384;2022-08-21T08:39:17;3.90;;;3.42;;
13785;SDS011;47474;48.824;9.384;2022-08-21T08:42:17;7.10;;;3.63;;
13785;SDS011;47474;48.824;9.384;2022-08-21T08:45:08;5.18;;;3.53;;
13785;SDS011;47474;48.824;9.384;2022-08-21T08:50:36;6.13;;;3.70;;
13785;SDS011;47474;48.824;9.384;2022-08-21T08:53:22;6.57;;;3.35;;
13785;SDS011;47474;48.824;9.384;2022-08-21T08:55:50;4.80;;;3.60;;
13785;SDS011;47474;48.824;9.384;2022-08-21T08:58:18;4.28;;;3.45;;
13785;SDS011;47474;48.824;9.384;2022-08-21T09:00:50;4.78;;;3.60;;
13785;SDS011;47474;48.824;9.384;2022-08-21T09:03:19;3.88;;;3.47;;
13785;SDS011;47474;48.824;9.384;2022-08-21T09:05:48;4.85;;;4.00;;
13785;SDS011;47474;48.824;9.384;2022-08-21T09:08:25;8.38;;;4.32;;
13785;SDS011;47474;48.824;9.384;2022-08-21T09:11:09;7.20;;;3.47;;
13785;SDS011;47474;48.824;9.384;2022-08-21T09:13:43;4.68;;;3.65;;
13785;SDS011;47474;48.824;9.384;2022-08-21T09:16:28;4.53;;;3.90;;
13785;SDS011;47474;48.824;9.384;2022-08-21T09:19:27;4.32;;;3.85;;
13785;SDS011;47474;48.824;9.384;2022-08-21T09:22:23;3.55;;;3.25;;
13785;SDS011;47474;48.824;9.384;2022-08-21T09:25:01;5.40;;;4.53;;
13785;SDS011;47474;48.824;9.384;2022-08-21T09:27:33;6.47;;;3.33;;
13785;SDS011;47474;48.824;9.384;2022-08-21T09:30:14;4.68;;;3.25;;
13785;SDS011;47474;48.824;9.384;2022-08-21T09:32:41;4.57;;;3.15;;
13785;SDS011;47474;48.824;9.384;2022-08-21T09:35:09;7.07;;;4.18;;
13785;SDS011;47474;48.824;9.384;2022-08-21T09:37:46;3.95;;;3.17;;
13785;SDS011;47474;48.824;9.384;2022-08-21T09:40:19;5.75;;;3.40;;
13785;SDS011;47474;48.824;9.384;2022-08-21T09:42:55;4.60;;;2.97;;
13785;SDS011;47474;48.824;9.384;2022-08-21T09:45:23;3.20;;;2.90;;
13785;SDS011;47474;48.824;9.384;2022-08-21T09:47:50;5.20;;;3.20;;
13785;SDS011;47474;48.824;9.384;2022-08-21T09:50:20;5.82;;;3.45;;
13785;SDS011;47474;48.824;9.384;2022-08-21T09:52:48;4.30;;;3.08;;
13785;SDS011;47474;48.824;9.384;2022-08-21T09:55:30;4.38;;;3.30;;
13785;SDS011;47474;48.824;9.384;2022-08-21T09:58:15;4.80;;;3.25;;
13785;SDS011;47474;48.824;9.384;2022-08-21T10:00:42;3.85;;;3.05;;
13785;SDS011;47474;48.824;9.384;2022-08-21T10:03:10;7.30;;;3.40;;
13785;SDS011;47474;48.824;9.384;2022-08-21T10:06:08;5.35;;;3.28;;
13785;SDS011;47474;48.824;9.384;2022-08-21T10:08:49;4.43;;;3.20;;
13785;SDS011;47474;48.824;9.384;2022-08-21T10:11:24;4.00;;;2.95;;
13785;SDS011;47474;48.824;9.384;2022-08-21T10:14:07;5.43;;;3.75;;
13785;SDS011;47474;48.824;9.384;2022-08-21T10:16:46;5.40;;;2.92;;
13785;SDS011;47474;48.824;9.384;2022-08-21T10:22:46;7.68;;;3.17;;
13785;SDS011;47474;48.824;9.384;2022-08-21T10:25:55;4.45;;;2.80;;
13785;SDS011;47474;48.824;9.384;2022-08-21T10:28:39;6.15;;;2.65;;
13785;SDS011;47474;48.824;9.384;2022-08-21T10:34:08;3.42;;;2.85;;
13785;SDS011;47474;48.824;9.384;2022-08-21T10:37:17;3.40;;;2.50;;
13785;SDS011;47474;48.824;9.384;2022-08-21T10:40:10;6.35;;;2.70;;
13785;SDS011;47474;48.824;9.384;2022-08-21T10:42:46;5.32;;;2.63;;
13785;SDS011;47474;48.824;9.384;2022-08-21T10:45:22;4.57;;;2.65;;
13785;SDS011;47474;48.824;9.384;2022-08-21T10:47:57;6.47;;;2.88;;
13785;SDS011;47474;48.824;9.384;2022-08-21T10:50:30;2.75;;;2.40;;
13785;SDS011;47474;48.824;9.384;2022-08-21T10:53:07;5.57;;;2.70;;
13785;SDS011;47474;48.824;9.384;2022-08-21T10:55:52;5.60;;;2.92;;
13785;SDS011;47474;48.824;9.384;2022-08-21T10:58:24;7.53;;;3.00;;
13785;SDS011;47474;48.824;9.384;2022-08-21T11:00:53;3.28;;;2.20;;
13785;SDS011;47474;48.824;9.384;2022-08-21T11:03:23;3.88;;;2.50;;
13785;SDS011;47474;48.824;9.384;2022-08-21T11:05:52;3.95;;;2.40;;
13785;SDS011;47474;48.824;9.384;2022-08-21T11:08:21;4.18;;;2.47;;
13785;SDS011;47474;48.824;9.384;2022-08-21T11:10:50;5.00;;;2.60;;
13785;SDS011;47474;48.824;9.384;2022-08-21T11:13:24;6.50;;;3.00;;
13785;SDS011;47474;48.824;9.384;2022-08-21T11:15:56;5.07;;;2.78;;
13785;SDS011;47474;48.824;9.384;2022-08-21T11:18:28;5.63;;;3.13;;
13785;SDS011;47474;48.824;9.384;2022-08-21T11:21:01;4.15;;;3.05;;
13785;SDS011;47474;48.824;9.384;2022-08-21T11:23:33;3.58;;;2.67;;
13785;SDS011;47474;48.824;9.384;2022-08-21T11:26:07;3.00;;;2.45;;
13785;SDS011;47474;48.824;9.384;2022-08-21T11:28:37;6.13;;;2.90;;
13785;SDS011;47474;48.824;9.384;2022-08-21T11:31:10;6.63;;;3.17;;
13785;SDS011;47474;48.824;9.384;2022-08-21T11:33:46;4.75;;;2.67;;
13785;SDS011;47474;48.824;9.384;2022-08-21T11:36:21;4.43;;;2.85;;
13785;SDS011;47474;48.824;9.384;2022-08-21T11:38:53;4.47;;;2.80;;
13785;SDS011;47474;48.824;9.384;2022-08-21T11:41:28;5.75;;;2.70;;
13785;SDS011;47474;48.824;9.384;2022-08-21T11:44:00;4.15;;;2.50;;
13785;SDS011;47474;48.824;9.384;2022-08-21T11:46:31;5.53;;;3.17;;
13785;SDS011;47474;48.824;9.384;2022-08-21T11:49:11;7.28;;;2.80;;
13785;SDS011;47474;48.824;9.384;2022-08-21T11:52:00;5.43;;;2.95;;
13785;SDS011;47474;48.824;9.384;2022-08-21T11:54:34;5.28;;;3.40;;
13785;SDS011;47474;48.824;9.384;2022-08-21T11:57:04;3.13;;;2.13;;
13785;SDS011;47474;48.824;9.384;2022-08-21T11:59:35;5.85;;;2.95;;
13785;SDS011;47474;48.824;9.384;2022-08-21T12:02:04;4.78;;;2.70;;
13785;SDS011;47474;48.824;9.384;2022-08-21T12:04:35;4.80;;;2.55;;
13785;SDS011;47474;48.824;9.384;2022-08-21T12:07:10;4.20;;;2.60;;
13785;SDS011;47474;48.824;9.384;2022-08-21T12:09:38;2.97;;;2.50;;
13785;SDS011;47474;48.824;9.384;2022-08-21T12:12:10;4.95;;;2.50;;
13785;SDS011;47474;48.824;9.384;2022-08-21T12:14:41;3.65;;;2.67;;
13785;SDS011;47474;48.824;9.384;2022-08-21T12:17:16;3.70;;;2.38;;
13785;SDS011;47474;48.824;9.384;2022-08-21T12:19:44;5.75;;;2.53;;
13785;SDS011;47474;48.824;9.384;2022-08-21T12:22:11;3.67;;;2.35;;
13785;SDS011;47474;48.824;9.384;2022-08-21T12:24:39;4.63;;;2.53;;
13785;SDS011;47474;48.824;9.384;2022-08-21T12:27:19;3.55;;;2.53;;
13785;SDS011;47474;48.824;9.384;2022-08-21T12:29:51;3.38;;;2.47;;
13785;SDS011;47474;48.824;9.384;2022-08-21T12:32:23;4.35;;;2.30;;
13785;SDS011;47474;48.824;9.384;2022-08-21T12:34:52;5.95;;;2.38;;
13785;SDS011;47474;48.824;9.384;2022-08-21T12:37:22;4.13;;;2.22;;
13785;SDS011;47474;48.824;9.384;2022-08-21T12:39:51;2.45;;;2.10;;
13785;SDS011;47474;48.824;9.384;2022-08-21T12:42:20;3.83;;;1.92;;
13785;SDS011;47474;48.824;9.384;2022-08-21T12:44:50;2.88;;;1.92;;
13785;SDS011;47474;48.824;9.384;2022-08-21T12:47:24;4.38;;;2.28;;
13785;SDS011;47474;48.824;9.384;2022-08-21T12:49:54;3.60;;;2.03;;
13785;SDS011;47474;48.824;9.384;2022-08-21T12:52:24;2.25;;;2.05;;
13785;SDS011;47474;48.824;9.384;2022-08-21T12:54:54;3.38;;;2.50;;
13785;SDS011;47474;48.824;9.384;2022-08-21T12:57:23;3.55;;;2.30;;
13785;SDS011;47474;48.824;9.384;2022-08-21T12:59:54;3.03;;;2.10;;
13785;SDS011;47474;48.824;9.384;2022-08-21T13:02:24;4.43;;;2.20;;
13785;SDS011;47474;48.824;9.384;2022-08-21T13:04:51;3.40;;;2.35;;
13785;SDS011;47474;48.824;9.384;2022-08-21T13:07:22;4.28;;;2.35;;
13785;SDS011;47474;48.824;9.384;2022-08-21T13:09:52;4.75;;;2.55;;
13785;SDS011;47474;48.824;9.384;2022-08-21T13:12:22;3.40;;;2.45;;
13785;SDS011;47474;48.824;9.384;2022-08-21T13:14:50;2.97;;;2.00;;
13785;SDS011;47474;48.824;9.384;2022-08-21T13:17:18;3.40;;;2.00;;
13785;SDS011;47474;48.824;9.384;2022-08-21T13:19:52;2.33;;;2.13;;
13785;SDS011;47474;48.824;9.384;2022-08-21T13:22:23;3.20;;;2.17;;
13785;SDS011;47474;48.824;9.384;2022-08-21T13:24:50;3.17;;;2.30;;
13785;SDS011;47474;48.824;9.384;2022-08-21T13:27:25;5.63;;;2.33;;
13785;SDS011;47474;48.824;9.384;2022-08-21T13:30:05;4.63;;;2.38;;
13785;SDS011;47474;48.824;9.384;2022-08-21T13:32:34;2.75;;;2.10;;
13785;SDS011;47474;48.824;9.384;2022-08-21T13:35:07;3.25;;;2.10;;
13785;SDS011;47474;48.824;9.384;2022-08-21T13:37:38;3.75;;;1.70;;
13785;SDS011;47474;48.824;9.384;2022-08-21T13:40:07;3.05;;;2.13;;
13785;SDS011;47474;48.824;9.384;2022-08-21T13:42:39;4.38;;;2.25;;
13785;SDS011;47474;48.824;9.384;2022-08-21T13:45:11;2.38;;;2.10;;
13785;SDS011;47474;48.824;9.384;2022-08-21T13:47:40;3.08;;;2.13;;
13785;SDS011;47474;48.824;9.384;2022-08-21T13:50:08;3.33;;;2.10;;
13785;SDS011;47474;48.824;9.384;2022-08-21T13:52:44;1.80;;;1.60;;
13785;SDS011;47474;48.824;9.384;2022-08-21T13:55:15;3.88;;;1.95;;
13785;SDS011;47474;48.824;9.384;2022-08-21T13:57:43;2.85;;;2.55;;
13785;SDS011;47474;48.824;9.384;2022-08-21T14:00:11;3.45;;;2.10;;
13785;SDS011;47474;48.824;9.384;2022-08-21T14:02:41;4.32;;;2.33;;
13785;SDS011;47474;48.824;9.384;2022-08-21T14:05:13;3.38;;;1.92;;
13785;SDS011;47474;48.824;9.384;2022-08-21T14:07:42;2.67;;;1.95;;
13785;SDS011;47474;48.824;9.384;2022-08-21T14:10:11;3.95;;;2.55;;
13785;SDS011;47474;48.824;9.384;2022-08-21T14:12:41;3.78;;;2.17;;
13785;SDS011;47474;48.824;9.384;2022-08-21T14:15:12;5.40;;;2.22;;
13785;SDS011;47474;48.824;9.384;2022-08-21T14:17:39;2.75;;;2.40;;
13785;SDS011;47474;48.824;9.384;2022-08-21T14:20:08;2.67;;;2.22;;
13785;SDS011;47474;48.824;9.384;2022-08-21T14:22:37;3.78;;;2.28;;
13785;SDS011;47474;48.824;9.384;2022-08-21T14:25:07;3.05;;;2.30;;
13785;SDS011;47474;48.824;9.384;2022-08-21T14:27:36;4.38;;;2.20;;
13785;SDS011;47474;48.824;9.384;2022-08-21T14:30:11;2.38;;;1.90;;
13785;SDS011;47474;48.824;9.384;2022-08-21T14:32:40;3.30;;;2.22;;
13785;SDS011;47474;48.824;9.384;2022-08-21T14:35:07;3.47;;;2.13;;
13785;SDS011;47474;48.824;9.384;2022-08-21T14:37:35;3.20;;;2.03;;
13785;SDS011;47474;48.824;9.384;2022-08-21T14:40:02;3.00;;;2.10;;
13785;SDS011;47474;48.824;9.384;2022-08-21T14:42:29;2.92;;;1.83;;
13785;SDS011;47474;48.824;9.384;2022-08-21T14:44:57;2.47;;;2.00;;
13785;SDS011;47474;48.824;9.384;2022-08-21T14:47:28;3.65;;;2.33;;
13785;SDS011;47474;48.824;9.384;2022-08-21T14:49:54;2.63;;;2.42;;
13785;SDS011;47474;48.824;9.384;2022-08-21T14:52:21;2.55;;;2.10;;
13785;SDS011;47474;48.824;9.384;2022-08-21T14:54:48;3.03;;;2.28;;
13785;SDS011;47474;48.824;9.384;2022-08-21T14:57:15;2.97;;;2.15;;
13785;SDS011;47474;48.824;9.384;2022-08-21T14:59:42;4.18;;;2.20;;
13785;SDS011;47474;48.824;9.384;2022-08-21T15:02:08;4.82;;;2.28;;
13785;SDS011;47474;48.824;9.384;2022-08-21T15:04:36;3.50;;;2.20;;
13785;SDS011;47474;48.824;9.384;2022-08-21T15:07:03;2.72;;;2.13;;
13785;SDS011;47474;48.824;9.384;2022-08-21T15:09:30;3.35;;;2.20;;
13785;SDS011;47474;48.824;9.384;2022-08-21T15:11:57;2.63;;;2.10;;
13785;SDS011;47474;48.824;9.384;2022-08-21T15:14:26;2.85;;;2.20;;
13785;SDS011;47474;48.824;9.384;2022-08-21T15:16:54;2.60;;;2.10;;